createdAt,value
2023-05-11T00:00:19.700Z,94753.00
2023-05-11T00:01:19.478Z,94753.00
2023-05-11T00:02:19.520Z,94749.00
2023-05-11T00:03:19.619Z,94749.00
2023-05-11T00:04:19.528Z,94747.00
2023-05-11T00:05:19.508Z,94745.00
2023-05-11T00:06:19.538Z,94745.00
2023-05-11T00:07:19.515Z,94745.00
2023-05-11T00:08:19.524Z,94747.00
2023-05-11T00:09:19.536Z,94745.00
2023-05-11T00:10:19.726Z,94745.00
2023-05-11T00:11:19.528Z,94743.00
2023-05-11T00:12:19.525Z,94738.00
2023-05-11T00:13:19.523Z,94739.00
2023-05-11T00:14:19.541Z,94736.00
2023-05-11T00:15:19.566Z,94732.00
2023-05-11T00:16:19.594Z,94734.00
2023-05-11T00:17:19.561Z,94734.00
2023-05-11T00:18:19.591Z,94734.00
2023-05-11T00:19:19.803Z,94736.00
2023-05-11T00:20:19.808Z,94736.00
2023-05-11T00:21:19.573Z,94736.00
2023-05-11T00:22:19.575Z,94734.00
2023-05-11T00:23:19.562Z,94736.00
2023-05-11T00:24:19.600Z,94734.00
2023-05-11T00:25:19.604Z,94734.00
2023-05-11T00:26:19.605Z,94734.00
2023-05-11T00:27:19.611Z,94734.00
2023-05-11T00:28:19.584Z,94736.00
2023-05-11T00:29:19.628Z,94732.00
2023-05-11T00:30:19.779Z,94734.00
2023-05-11T00:31:19.625Z,94732.00
2023-05-11T00:32:19.709Z,94730.00
2023-05-11T00:33:19.651Z,94730.00
2023-05-11T00:34:19.666Z,94730.00
2023-05-11T00:35:19.646Z,94730.00
2023-05-11T00:36:19.632Z,94730.00
2023-05-11T00:37:19.662Z,94730.00
2023-05-11T00:38:19.658Z,94730.00
2023-05-11T00:39:19.664Z,94728.00
2023-05-11T00:40:19.883Z,94726.00
2023-05-11T00:41:19.704Z,94728.00
2023-05-11T00:42:19.649Z,94728.00
2023-05-11T00:43:19.689Z,94726.00
2023-05-11T00:44:19.730Z,94726.00
2023-05-11T00:45:19.698Z,94726.00
2023-05-11T00:46:19.738Z,94726.00
2023-05-11T00:47:19.719Z,94724.00
2023-05-11T00:48:19.721Z,94724.00
2023-05-11T00:49:19.693Z,94726.00
2023-05-11T00:50:19.834Z,94724.00
2023-05-11T00:51:19.734Z,94724.00
2023-05-11T00:52:19.749Z,94722.00
2023-05-11T00:53:19.706Z,94726.00
2023-05-11T00:54:19.715Z,94724.00
2023-05-11T00:55:19.741Z,94724.00
2023-05-11T00:56:19.747Z,94724.00
2023-05-11T00:57:19.761Z,94722.00
2023-05-11T00:58:19.766Z,94726.00
2023-05-11T00:59:19.796Z,94728.00
2023-05-11T01:00:19.931Z,94726.00
2023-05-11T01:01:19.820Z,94726.00
2023-05-11T01:02:19.808Z,94724.00
2023-05-11T01:03:19.835Z,94724.00
2023-05-11T01:04:19.840Z,94722.00
2023-05-11T01:05:19.805Z,94728.00
2023-05-11T01:06:19.804Z,94730.00
2023-05-11T01:07:19.819Z,94730.00
2023-05-11T01:08:19.859Z,94728.00
2023-05-11T01:09:19.844Z,94728.00
2023-05-11T01:10:20.019Z,94732.00
2023-05-11T01:11:19.865Z,94730.00
2023-05-11T01:12:19.859Z,94730.00
2023-05-11T01:13:19.862Z,94732.00
2023-05-11T01:14:19.865Z,94730.00
2023-05-11T01:15:19.877Z,94730.00
2023-05-11T01:16:19.964Z,94726.00
2023-05-11T01:17:19.873Z,94726.00
2023-05-11T01:18:19.930Z,94726.00
2023-05-11T01:19:19.901Z,94728.00
2023-05-11T01:20:20.167Z,94728.00
2023-05-11T01:21:19.938Z,94728.00
2023-05-11T01:22:19.927Z,94726.00
2023-05-11T01:23:19.937Z,94728.00
2023-05-11T01:24:19.947Z,94724.00
2023-05-11T01:25:19.981Z,94730.00
2023-05-11T01:26:19.953Z,94728.00
2023-05-11T01:27:19.959Z,94728.00
2023-05-11T01:28:19.950Z,94728.00
2023-05-11T01:29:19.989Z,94726.00
2023-05-11T01:30:20.045Z,94724.00
2023-05-11T01:31:20.000Z,94722.00
2023-05-11T01:32:19.950Z,94718.00
2023-05-11T01:33:20.004Z,94716.00
2023-05-11T01:34:19.993Z,94716.00
2023-05-11T01:35:19.977Z,94718.00
2023-05-11T01:36:19.986Z,94718.00
2023-05-11T01:37:19.993Z,94722.00
2023-05-11T01:38:19.966Z,94722.00
2023-05-11T01:39:20.001Z,94722.00
2023-05-11T01:40:20.189Z,94716.00
2023-05-11T01:41:19.949Z,94716.00
2023-05-11T01:42:19.951Z,94718.00
2023-05-11T01:43:19.951Z,94720.00
2023-05-11T01:44:19.975Z,94720.00
2023-05-11T01:45:19.988Z,94718.00
2023-05-11T01:46:20.021Z,94722.00
2023-05-11T01:47:19.947Z,94718.00
2023-05-11T01:48:19.968Z,94720.00
2023-05-11T01:49:19.966Z,94716.00
2023-05-11T01:50:20.125Z,94720.00
2023-05-11T01:51:19.986Z,94718.00
2023-05-11T01:52:19.991Z,94716.00
2023-05-11T01:53:20.026Z,94718.00
2023-05-11T01:54:19.971Z,94722.00
2023-05-11T01:55:19.977Z,94722.00
2023-05-11T01:56:19.962Z,94724.00
2023-05-11T01:57:19.983Z,94722.00
2023-05-11T01:58:19.965Z,94722.00
2023-05-11T01:59:19.967Z,94720.00
2023-05-11T02:00:20.121Z,94720.00
2023-05-11T02:01:20.006Z,94722.00
2023-05-11T02:02:20.012Z,94720.00
2023-05-11T02:03:20.056Z,94718.00
2023-05-11T02:04:19.978Z,94718.00
2023-05-11T02:05:19.980Z,94720.00
2023-05-11T02:06:19.983Z,94722.00
2023-05-11T02:07:19.957Z,94722.00
2023-05-11T02:08:19.987Z,94722.00
2023-05-11T02:09:19.966Z,94724.00
2023-05-11T02:10:20.196Z,94724.00
2023-05-11T02:11:20.003Z,94724.00
2023-05-11T02:12:19.990Z,94722.00
2023-05-11T02:13:20.042Z,94724.00
2023-05-11T02:14:19.974Z,94722.00
2023-05-11T02:15:19.977Z,94722.00
2023-05-11T02:16:20.082Z,94722.00
2023-05-11T02:17:19.985Z,94724.00
2023-05-11T02:18:20.024Z,94722.00
2023-05-11T02:19:20.001Z,94722.00
2023-05-11T02:20:20.164Z,94724.00
2023-05-11T02:21:20.062Z,94722.00
2023-05-11T02:22:20.028Z,94722.00
2023-05-11T02:23:20.037Z,94724.00
2023-05-11T02:24:20.104Z,94724.00
2023-05-11T02:25:20.009Z,94726.00
2023-05-11T02:26:19.990Z,94722.00
2023-05-11T02:27:19.991Z,94726.00
2023-05-11T02:28:20.030Z,94724.00
2023-05-11T02:29:20.048Z,94722.00
2023-05-11T02:30:20.173Z,94724.00
2023-05-11T02:31:20.129Z,94724.00
2023-05-11T02:32:19.987Z,94722.00
2023-05-11T02:33:19.992Z,94720.00
2023-05-11T02:34:20.065Z,94722.00
2023-05-11T02:35:20.077Z,94716.00
2023-05-11T02:36:20.001Z,94716.00
2023-05-11T02:37:20.018Z,94718.00
2023-05-11T02:38:20.034Z,94718.00
2023-05-11T02:39:20.056Z,94718.00
2023-05-11T02:40:20.278Z,94720.00
2023-05-11T02:41:20.041Z,94718.00
2023-05-11T02:42:20.013Z,94716.00
2023-05-11T02:43:20.031Z,94716.00
2023-05-11T02:44:20.026Z,94714.00
2023-05-11T02:45:20.040Z,94714.00
2023-05-11T02:46:20.084Z,94712.00
2023-05-11T02:47:20.129Z,94710.00
2023-05-11T02:48:20.060Z,94710.00
2023-05-11T02:49:20.073Z,94708.00
2023-05-11T02:50:20.208Z,94710.00
2023-05-11T02:51:20.098Z,94710.00
2023-05-11T02:52:20.076Z,94708.00
2023-05-11T02:53:20.067Z,94706.00
2023-05-11T02:54:20.086Z,94704.00
2023-05-11T02:55:20.046Z,94704.00
2023-05-11T02:56:20.061Z,94702.00
2023-05-11T02:57:20.060Z,94706.00
2023-05-11T02:58:20.193Z,94700.00
2023-05-11T02:59:20.126Z,94700.00
2023-05-11T03:00:20.458Z,94700.00
2023-05-11T03:01:20.160Z,94702.00
2023-05-11T03:02:20.189Z,94702.00
2023-05-11T03:03:20.139Z,94702.00
2023-05-11T03:04:20.081Z,94700.00
2023-05-11T03:05:20.067Z,94698.00
2023-05-11T03:06:20.105Z,94698.00
2023-05-11T03:07:20.071Z,94696.00
2023-05-11T03:08:20.103Z,94696.00
2023-05-11T03:09:20.091Z,94700.00
2023-05-11T03:10:20.387Z,94700.00
2023-05-11T03:11:20.112Z,94702.00
2023-05-11T03:12:20.121Z,94700.00
2023-05-11T03:13:20.143Z,94700.00
2023-05-11T03:14:20.139Z,94698.00
2023-05-11T03:15:20.149Z,94696.00
2023-05-11T03:16:21.312Z,94696.00
2023-05-11T03:17:20.161Z,94696.00
2023-05-11T03:18:20.214Z,94696.00
2023-05-11T03:19:20.164Z,94696.00
2023-05-11T03:20:20.350Z,94700.00
2023-05-11T03:21:20.172Z,94696.00
2023-05-11T03:22:20.182Z,94696.00
2023-05-11T03:23:20.240Z,94700.00
2023-05-11T03:24:20.253Z,94696.00
2023-05-11T03:25:20.259Z,94696.00
2023-05-11T03:26:20.248Z,94698.00
2023-05-11T03:27:20.283Z,94694.00
2023-05-11T03:28:20.272Z,94694.00
2023-05-11T03:29:20.258Z,94696.00
2023-05-11T03:30:20.412Z,94691.00
2023-05-11T03:31:20.280Z,94694.00
2023-05-11T03:32:20.387Z,94692.00
2023-05-11T03:33:20.295Z,94692.00
2023-05-11T03:34:20.305Z,94694.00
2023-05-11T03:35:20.364Z,94694.00
2023-05-11T03:36:20.337Z,94694.00
2023-05-11T03:37:20.396Z,94692.00
2023-05-11T03:38:20.361Z,94692.00
2023-05-11T03:39:20.443Z,94691.00
2023-05-11T03:40:20.533Z,94689.00
2023-05-11T03:41:20.362Z,94689.00
2023-05-11T03:42:20.377Z,94691.00
2023-05-11T03:43:20.431Z,94689.00
2023-05-11T03:44:20.439Z,94691.00
2023-05-11T03:45:20.476Z,94689.00
2023-05-11T03:46:20.503Z,94689.00
2023-05-11T03:47:20.495Z,94689.00
2023-05-11T03:48:20.472Z,94689.00
2023-05-11T03:49:20.473Z,94691.00
2023-05-11T03:50:20.521Z,94692.00
2023-05-11T03:51:20.555Z,94687.00
2023-05-11T03:52:20.456Z,94689.00
2023-05-11T03:53:20.510Z,94687.00
2023-05-11T03:54:20.512Z,94687.00
2023-05-11T03:55:20.520Z,94683.00
2023-05-11T03:56:20.545Z,94687.00
2023-05-11T03:57:20.530Z,94687.00
2023-05-11T03:58:20.541Z,94687.00
2023-05-11T03:59:20.551Z,94689.00
2023-05-11T04:00:20.682Z,94692.00
2023-05-11T04:01:20.551Z,94689.00
2023-05-11T04:02:20.660Z,94700.00
2023-05-11T04:03:20.673Z,94698.00
2023-05-11T04:04:20.622Z,94696.00
2023-05-11T04:05:20.622Z,94698.00
2023-05-11T04:06:20.626Z,94694.00
2023-05-11T04:07:20.624Z,94691.00
2023-05-11T04:08:20.664Z,94691.00
2023-05-11T04:09:20.710Z,94694.00
2023-05-11T04:10:20.749Z,94694.00
2023-05-11T04:11:20.684Z,94694.00
2023-05-11T04:12:20.690Z,94694.00
2023-05-11T04:13:20.738Z,94694.00
2023-05-11T04:14:20.820Z,94694.00
2023-05-11T04:15:20.735Z,94698.00
2023-05-11T04:16:20.767Z,94694.00
2023-05-11T04:17:20.715Z,94694.00
2023-05-11T04:18:20.790Z,94696.00
2023-05-11T04:19:20.785Z,94694.00
2023-05-11T04:20:21.004Z,94691.00
2023-05-11T04:21:20.785Z,94692.00
2023-05-11T04:22:20.812Z,94696.00
2023-05-11T04:23:20.820Z,94694.00
2023-05-11T04:24:20.833Z,94696.00
2023-05-11T04:25:20.855Z,94694.00
2023-05-11T04:26:20.854Z,94694.00
2023-05-11T04:27:20.945Z,94694.00
2023-05-11T04:28:20.938Z,94696.00
2023-05-11T04:29:20.945Z,94698.00
2023-05-11T04:30:21.081Z,94691.00
2023-05-11T04:31:20.988Z,94689.00
2023-05-11T04:32:21.015Z,94691.00
2023-05-11T04:33:21.036Z,94692.00
2023-05-11T04:34:21.093Z,94691.00
2023-05-11T04:35:21.108Z,94694.00
2023-05-11T04:36:21.154Z,94694.00
2023-05-11T04:37:21.172Z,94696.00
2023-05-11T04:38:21.227Z,94696.00
2023-05-11T04:39:21.237Z,94694.00
2023-05-11T04:40:21.303Z,94691.00
2023-05-11T04:41:21.330Z,94691.00
2023-05-11T04:42:21.353Z,94685.00
2023-05-11T04:43:21.377Z,94687.00
2023-05-11T04:44:21.392Z,94689.00
2023-05-11T04:45:21.481Z,94689.00
2023-05-11T04:46:21.488Z,94691.00
2023-05-11T04:47:21.486Z,94691.00
2023-05-11T04:48:21.534Z,94692.00
2023-05-11T04:49:21.614Z,94692.00
2023-05-11T04:50:21.604Z,94692.00
2023-05-11T04:51:21.645Z,94691.00
2023-05-11T04:52:21.670Z,94692.00
2023-05-11T04:53:21.669Z,94691.00
2023-05-11T04:54:21.703Z,94692.00
2023-05-11T04:55:21.693Z,94694.00
2023-05-11T04:56:21.750Z,94694.00
2023-05-11T04:57:21.804Z,94696.00
2023-05-11T04:58:21.786Z,94694.00
2023-05-11T04:59:21.868Z,94696.00
2023-05-11T05:00:22.200Z,94696.00
2023-05-11T05:01:21.972Z,94698.00
2023-05-11T05:02:21.962Z,94700.00
2023-05-11T05:03:22.009Z,94702.00
2023-05-11T05:04:21.973Z,94696.00
2023-05-11T05:05:22.024Z,94702.00
2023-05-11T05:06:22.052Z,94702.00
2023-05-11T05:07:22.063Z,94702.00
2023-05-11T05:08:22.068Z,94704.00
2023-05-11T05:09:22.081Z,94702.00
2023-05-11T05:10:22.110Z,94698.00
2023-05-11T05:11:22.113Z,94704.00
2023-05-11T05:12:22.165Z,94702.00
2023-05-11T05:13:22.170Z,94700.00
2023-05-11T05:14:22.231Z,94706.00
2023-05-11T05:15:22.219Z,94706.00
2023-05-11T05:16:22.306Z,94708.00
2023-05-11T05:17:22.250Z,94706.00
2023-05-11T05:18:22.332Z,94712.00
2023-05-11T05:19:22.267Z,94710.00
2023-05-11T05:20:22.333Z,94710.00
2023-05-11T05:21:22.326Z,94712.00
2023-05-11T05:22:22.370Z,94712.00
2023-05-11T05:23:22.377Z,94716.00
2023-05-11T05:24:22.407Z,94712.00
2023-05-11T05:25:22.465Z,94714.00
2023-05-11T05:26:22.433Z,94718.00
2023-05-11T05:27:22.473Z,94720.00
2023-05-11T05:28:22.473Z,94718.00
2023-05-11T05:29:22.512Z,94722.00
2023-05-11T05:30:22.550Z,94718.00
2023-05-11T05:31:22.596Z,94718.00
2023-05-11T05:32:22.551Z,94716.00
2023-05-11T05:33:22.568Z,94716.00
2023-05-11T05:34:22.607Z,94716.00
2023-05-11T05:35:22.590Z,94720.00
2023-05-11T05:36:22.604Z,94720.00
2023-05-11T05:37:22.668Z,94718.00
2023-05-11T05:38:22.699Z,94718.00
2023-05-11T05:39:22.655Z,94720.00
2023-05-11T05:40:22.755Z,94722.00
2023-05-11T05:41:22.718Z,94724.00
2023-05-11T05:42:22.724Z,94720.00
2023-05-11T05:43:22.795Z,94720.00
2023-05-11T05:44:22.761Z,94718.00
2023-05-11T05:45:22.841Z,94718.00
2023-05-11T05:46:22.907Z,94718.00
2023-05-11T05:47:22.936Z,94718.00
2023-05-11T05:48:22.995Z,94722.00
2023-05-11T05:49:22.987Z,94728.00
2023-05-11T05:50:23.086Z,94726.00
2023-05-11T05:51:23.168Z,94722.00
2023-05-11T05:52:23.195Z,94722.00
2023-05-11T05:53:23.235Z,94728.00
2023-05-11T05:54:23.315Z,94722.00
2023-05-11T05:55:23.371Z,94724.00
2023-05-11T05:56:23.391Z,94726.00
2023-05-11T05:57:23.406Z,94726.00
2023-05-11T05:58:23.435Z,94728.00
2023-05-11T05:59:23.593Z,94726.00
2023-05-11T06:00:23.537Z,94726.00
2023-05-11T06:01:23.586Z,94726.00
2023-05-11T06:02:23.622Z,94730.00
2023-05-11T06:03:23.875Z,94728.00
2023-05-11T06:04:23.735Z,94732.00
2023-05-11T06:05:23.669Z,94730.00
2023-05-11T06:06:23.678Z,94734.00
2023-05-11T06:07:23.671Z,94730.00
2023-05-11T06:08:23.750Z,94734.00
2023-05-11T06:09:23.697Z,94736.00
2023-05-11T06:10:23.701Z,94734.00
2023-05-11T06:11:23.740Z,94734.00
2023-05-11T06:12:23.775Z,94734.00
2023-05-11T06:13:23.717Z,94732.00
2023-05-11T06:14:23.881Z,94732.00
2023-05-11T06:15:23.717Z,94734.00
2023-05-11T06:16:23.724Z,94734.00
2023-05-11T06:17:23.809Z,94732.00
2023-05-11T06:18:23.780Z,94730.00
2023-05-11T06:19:23.679Z,94732.00
2023-05-11T06:20:23.683Z,94734.00
2023-05-11T06:21:23.690Z,94732.00
2023-05-11T06:22:23.679Z,94734.00
2023-05-11T06:23:23.691Z,94734.00
2023-05-11T06:24:23.689Z,94736.00
2023-05-11T06:25:23.696Z,94734.00
2023-05-11T06:26:23.753Z,94732.00
2023-05-11T06:27:23.707Z,94730.00
2023-05-11T06:28:23.750Z,94734.00
2023-05-11T06:29:23.760Z,94734.00
2023-05-11T06:30:23.778Z,94736.00
2023-05-11T06:31:23.882Z,94736.00
2023-05-11T06:32:23.936Z,94730.00
2023-05-11T06:33:23.893Z,94732.00
2023-05-11T06:34:23.909Z,94739.00
2023-05-11T06:35:24.411Z,94736.00
2023-05-11T06:36:23.943Z,94736.00
2023-05-11T06:37:24.389Z,94734.00
2023-05-11T06:38:24.405Z,94732.00
2023-05-11T06:39:24.438Z,94734.00
2023-05-11T06:40:23.992Z,94734.00
2023-05-11T06:41:24.019Z,94734.00
2023-05-11T06:42:24.020Z,94734.00
2023-05-11T06:43:24.070Z,94736.00
2023-05-11T06:44:24.079Z,94734.00
2023-05-11T06:45:24.320Z,94734.00
2023-05-11T06:46:24.297Z,94736.00
2023-05-11T06:47:24.319Z,94736.00
2023-05-11T06:48:24.370Z,94734.00
2023-05-11T06:49:24.423Z,94734.00
2023-05-11T06:50:26.686Z,94732.00
2023-05-11T06:51:24.498Z,94738.00
2023-05-11T06:52:24.506Z,94736.00
2023-05-11T06:53:24.967Z,94734.00
2023-05-11T06:54:24.483Z,94741.00
2023-05-11T06:55:24.456Z,94741.00
2023-05-11T06:56:24.454Z,94745.00
2023-05-11T06:57:24.437Z,94745.00
2023-05-11T06:58:24.444Z,94745.00
2023-05-11T06:59:24.481Z,94743.00
2023-05-11T07:00:24.391Z,94743.00
2023-05-11T07:01:24.410Z,94743.00
2023-05-11T07:02:24.620Z,94745.00
2023-05-11T07:03:24.429Z,94745.00
2023-05-11T07:04:24.457Z,94743.00
2023-05-11T07:05:24.379Z,94745.00
2023-05-11T07:06:24.373Z,94743.00
2023-05-11T07:07:24.345Z,94743.00
2023-05-11T07:08:24.319Z,94745.00
2023-05-11T07:09:24.342Z,94745.00
2023-05-11T07:10:24.341Z,94745.00
2023-05-11T07:11:24.305Z,94743.00
2023-05-11T07:12:24.306Z,94747.00
2023-05-11T07:13:24.281Z,94743.00
2023-05-11T07:14:24.628Z,94745.00
2023-05-11T07:15:24.274Z,94743.00
2023-05-11T07:16:24.327Z,94741.00
2023-05-11T07:17:24.319Z,94743.00
2023-05-11T07:18:24.286Z,94745.00
2023-05-11T07:19:24.295Z,94741.00
2023-05-11T07:20:24.239Z,94743.00
2023-05-11T07:21:24.278Z,94732.00
2023-05-11T07:22:24.341Z,94730.00
2023-05-11T07:23:24.389Z,94728.00
2023-05-11T07:24:24.439Z,94732.00
2023-05-11T07:25:24.453Z,94736.00
2023-05-11T07:26:24.416Z,94732.00
2023-05-11T07:27:25.301Z,94732.00
2023-05-11T07:28:24.426Z,94728.00
2023-05-11T07:29:24.964Z,94732.00
2023-05-11T07:30:25.002Z,94734.00
2023-05-11T07:31:24.448Z,94730.00
2023-05-11T07:32:24.534Z,94726.00
2023-05-11T07:33:24.890Z,94732.00
2023-05-11T07:34:24.578Z,94728.00
2023-05-11T07:35:24.623Z,94726.00
2023-05-11T07:36:24.638Z,94726.00
2023-05-11T07:37:24.628Z,94722.00
2023-05-11T07:38:24.903Z,94718.00
2023-05-11T07:39:24.658Z,94741.00
2023-05-11T07:40:24.959Z,94736.00
2023-05-11T07:41:24.734Z,94734.00
2023-05-11T07:42:24.787Z,94734.00
2023-05-11T07:43:24.755Z,94738.00
2023-05-11T07:44:24.939Z,94738.00
2023-05-11T07:45:24.898Z,94739.00
2023-05-11T07:46:24.891Z,94739.00
2023-05-11T07:47:24.872Z,94741.00
2023-05-11T07:48:24.922Z,94741.00
2023-05-11T07:49:31.552Z,94745.00
2023-05-11T07:50:26.731Z,94743.00
2023-05-11T07:51:24.931Z,94743.00
2023-05-11T07:52:24.907Z,94741.00
2023-05-11T07:53:24.935Z,94741.00
2023-05-11T07:54:24.934Z,94741.00
2023-05-11T07:55:25.428Z,94739.00
2023-05-11T07:56:24.890Z,94741.00
2023-05-11T07:57:24.888Z,94741.00
2023-05-11T07:58:24.853Z,94739.00
2023-05-11T07:59:24.941Z,94741.00
2023-05-11T08:00:24.955Z,94739.00
2023-05-11T08:01:24.991Z,94743.00
2023-05-11T08:02:25.092Z,94739.00
2023-05-11T08:03:25.471Z,94738.00
2023-05-11T08:04:25.087Z,94739.00
2023-05-11T08:05:25.221Z,94738.00
2023-05-11T08:06:25.156Z,94741.00
2023-05-11T08:07:25.139Z,94738.00
2023-05-11T08:08:25.190Z,94738.00
2023-05-11T08:09:25.228Z,94738.00
2023-05-11T08:10:25.217Z,94738.00
2023-05-11T08:11:25.240Z,94736.00
2023-05-11T08:12:25.265Z,94734.00
2023-05-11T08:13:25.961Z,94736.00
2023-05-11T08:14:25.306Z,94738.00
2023-05-11T08:15:25.281Z,94732.00
2023-05-11T08:16:25.326Z,94736.00
2023-05-11T08:17:25.340Z,94738.00
2023-05-11T08:18:25.372Z,94739.00
2023-05-11T08:19:25.400Z,94739.00
2023-05-11T08:20:25.328Z,94736.00
2023-05-11T08:21:25.351Z,94736.00
2023-05-11T08:22:25.366Z,94743.00
2023-05-11T08:23:25.349Z,94736.00
2023-05-11T08:24:25.370Z,94736.00
2023-05-11T08:25:25.388Z,94736.00
2023-05-11T08:26:25.388Z,94724.00
2023-05-11T08:27:25.404Z,94728.00
2023-05-11T08:28:25.406Z,94728.00
2023-05-11T08:29:25.398Z,94722.00
2023-05-11T08:30:25.404Z,94726.00
2023-05-11T08:31:25.456Z,94724.00
2023-05-11T08:32:25.566Z,94726.00
2023-05-11T08:33:37.463Z,94724.00
2023-05-11T08:34:27.115Z,94722.00
2023-05-11T08:35:25.523Z,94720.00
2023-05-11T08:36:25.467Z,94718.00
2023-05-11T08:37:25.453Z,94718.00
2023-05-11T08:38:25.460Z,94720.00
2023-05-11T08:39:43.639Z,94718.00
2023-05-11T08:40:26.455Z,94716.00
2023-05-11T08:41:25.470Z,94718.00
2023-05-11T08:42:25.452Z,94716.00
2023-05-11T08:43:25.454Z,94716.00
2023-05-11T08:44:25.407Z,94714.00
2023-05-11T08:45:25.460Z,94730.00
2023-05-11T08:46:25.480Z,94734.00
2023-05-11T08:47:25.411Z,94730.00
2023-05-11T08:48:25.397Z,94732.00
2023-05-11T08:49:25.400Z,94732.00
2023-05-11T08:50:25.399Z,94730.00
2023-05-11T08:51:25.400Z,94728.00
2023-05-11T08:52:25.347Z,94730.00
2023-05-11T08:53:25.448Z,94732.00
2023-05-11T08:54:25.486Z,94736.00
2023-05-11T08:55:25.533Z,94732.00
2023-05-11T08:56:25.569Z,94734.00
2023-05-11T08:57:25.602Z,94734.00
2023-05-11T08:58:25.658Z,94736.00
2023-05-11T08:59:25.966Z,94734.00
2023-05-11T09:00:25.701Z,94730.00
2023-05-11T09:01:25.741Z,94734.00
2023-05-11T09:02:25.761Z,94732.00
2023-05-11T09:03:25.797Z,94732.00
2023-05-11T09:04:25.761Z,94730.00
2023-05-11T09:05:25.961Z,94728.00
2023-05-11T09:06:25.768Z,94732.00
2023-05-11T09:07:25.767Z,94728.00
2023-05-11T09:08:25.766Z,94726.00
2023-05-11T09:09:25.759Z,94726.00
2023-05-11T09:10:25.730Z,94726.00
2023-05-11T09:11:25.776Z,94726.00
2023-05-11T09:12:25.732Z,94728.00
2023-05-11T09:13:25.770Z,94726.00
2023-05-11T09:14:27.370Z,94726.00
2023-05-11T09:15:25.792Z,94730.00
2023-05-11T09:16:36.885Z,94732.00
2023-05-11T09:17:26.750Z,94724.00
2023-05-11T09:18:25.730Z,94732.00
2023-05-11T09:19:25.761Z,94728.00
2023-05-11T09:20:25.733Z,94728.00
2023-05-11T09:21:25.722Z,94726.00
2023-05-11T09:22:27.273Z,94730.00
2023-05-11T09:23:25.687Z,94726.00
2023-05-11T09:24:25.685Z,94722.00
2023-05-11T09:25:25.712Z,94726.00
2023-05-11T09:26:25.704Z,94726.00
2023-05-11T09:27:25.670Z,94728.00
2023-05-11T09:28:25.989Z,94728.00
2023-05-11T09:29:30.387Z,94724.00
2023-05-11T09:30:26.984Z,94728.00
2023-05-11T09:31:25.730Z,94726.00
2023-05-11T09:32:25.667Z,94724.00
2023-05-11T09:33:25.957Z,94710.00
2023-05-11T09:34:25.634Z,94712.00
2023-05-11T09:35:25.605Z,94710.00
2023-05-11T09:36:25.646Z,94710.00
2023-05-11T09:37:25.632Z,94708.00
2023-05-11T09:38:25.746Z,94722.00
2023-05-11T09:39:35.579Z,94722.00
2023-05-11T09:40:27.795Z,94722.00
2023-05-11T09:41:26.692Z,94722.00
2023-05-11T09:42:25.722Z,94724.00
2023-05-11T09:43:25.688Z,94722.00
2023-05-11T09:44:26.445Z,94722.00
2023-05-11T09:45:25.664Z,94718.00
2023-05-11T09:46:25.694Z,94716.00
2023-05-11T09:47:25.625Z,94716.00
2023-05-11T09:48:25.643Z,94720.00
2023-05-11T09:49:25.631Z,94720.00
2023-05-11T09:50:26.876Z,94722.00
2023-05-11T09:51:26.245Z,94720.00
2023-05-11T09:52:25.573Z,94720.00
2023-05-11T09:53:26.664Z,94720.00
2023-05-11T09:54:25.615Z,94718.00
2023-05-11T09:55:25.586Z,94716.00
2023-05-11T09:56:25.555Z,94720.00
2023-05-11T09:57:25.593Z,94716.00
2023-05-11T09:58:25.565Z,94718.00
2023-05-11T09:59:26.684Z,94716.00
2023-05-11T10:00:25.574Z,94724.00
2023-05-11T10:01:25.607Z,94720.00
2023-05-11T10:02:25.573Z,94718.00
2023-05-11T10:03:25.760Z,94720.00
2023-05-11T10:04:26.069Z,94716.00
2023-05-11T10:05:25.584Z,94714.00
2023-05-11T10:06:25.638Z,94716.00
2023-05-11T10:07:25.615Z,94714.00
2023-05-11T10:08:25.612Z,94714.00
2023-05-11T10:09:25.903Z,94714.00
2023-05-11T10:10:25.586Z,94712.00
2023-05-11T10:11:26.405Z,94714.00
2023-05-11T10:12:25.620Z,94714.00
2023-05-11T10:13:25.619Z,94710.00
2023-05-11T10:14:25.609Z,94704.00
2023-05-11T10:15:25.641Z,94702.00
2023-05-11T10:16:25.648Z,94702.00
2023-05-11T10:17:25.718Z,94702.00
2023-05-11T10:18:25.647Z,94702.00
2023-05-11T10:19:25.577Z,94702.00
2023-05-11T10:20:25.602Z,94702.00
2023-05-11T10:21:25.599Z,94702.00
2023-05-11T10:22:25.672Z,94702.00
2023-05-11T10:23:25.635Z,94704.00
2023-05-11T10:24:25.642Z,94710.00
2023-05-11T10:25:25.623Z,94702.00
2023-05-11T10:26:25.638Z,94698.00
2023-05-11T10:27:25.603Z,94700.00
2023-05-11T10:28:25.592Z,94698.00
2023-05-11T10:29:25.582Z,94698.00
2023-05-11T10:30:25.588Z,94702.00
2023-05-11T10:31:25.592Z,94696.00
2023-05-11T10:32:25.665Z,94692.00
2023-05-11T10:33:25.615Z,94696.00
2023-05-11T10:34:25.603Z,94696.00
2023-05-11T10:35:25.547Z,94696.00
2023-05-11T10:36:25.964Z,94694.00
2023-05-11T10:37:25.621Z,94694.00
2023-05-11T10:38:25.594Z,94691.00
2023-05-11T10:39:25.580Z,94692.00
2023-05-11T10:40:25.587Z,94691.00
2023-05-11T10:41:25.658Z,94689.00
2023-05-11T10:42:25.610Z,94687.00
2023-05-11T10:43:25.618Z,94689.00
2023-05-11T10:44:25.627Z,94687.00
2023-05-11T10:45:25.613Z,94687.00
2023-05-11T10:46:26.597Z,94687.00
2023-05-11T10:47:25.737Z,94683.00
2023-05-11T10:48:25.718Z,94685.00
2023-05-11T10:49:25.746Z,94683.00
2023-05-11T10:50:25.758Z,94685.00
2023-05-11T10:51:25.785Z,94679.00
2023-05-11T10:52:26.793Z,94683.00
2023-05-11T10:53:25.835Z,94685.00
2023-05-11T10:54:25.891Z,94685.00
2023-05-11T10:55:25.862Z,94681.00
2023-05-11T10:56:25.965Z,94681.00
2023-05-11T10:57:25.985Z,94679.00
2023-05-11T10:58:26.012Z,94679.00
2023-05-11T10:59:26.035Z,94675.00
2023-05-11T11:00:26.136Z,94677.00
2023-05-11T11:01:26.134Z,94679.00
2023-05-11T11:02:26.118Z,94679.00
2023-05-11T11:03:26.152Z,94675.00
2023-05-11T11:04:27.297Z,94677.00
2023-05-11T11:05:26.319Z,94679.00
2023-05-11T11:06:26.326Z,94675.00
2023-05-11T11:07:26.381Z,94679.00
2023-05-11T11:08:26.396Z,94677.00
2023-05-11T11:09:26.384Z,94677.00
2023-05-11T11:10:26.470Z,94675.00
2023-05-11T11:11:26.485Z,94673.00
2023-05-11T11:12:26.553Z,94673.00
2023-05-11T11:13:26.632Z,94669.00
2023-05-11T11:14:26.611Z,94669.00
2023-05-11T11:15:26.713Z,94669.00
2023-05-11T11:16:26.769Z,94671.00
2023-05-11T11:17:27.035Z,94667.00
2023-05-11T11:18:26.913Z,94673.00
2023-05-11T11:19:26.918Z,94671.00
2023-05-11T11:20:26.989Z,94671.00
2023-05-11T11:21:27.028Z,94669.00
2023-05-11T11:22:27.488Z,94667.00
2023-05-11T11:23:27.138Z,94665.00
2023-05-11T11:24:27.483Z,94667.00
2023-05-11T11:25:27.264Z,94663.00
2023-05-11T11:26:27.345Z,94667.00
2023-05-11T11:27:29.425Z,94663.00
2023-05-11T11:28:27.393Z,94663.00
2023-05-11T11:29:27.418Z,94653.00
2023-05-11T11:30:27.382Z,94661.00
2023-05-11T11:31:27.385Z,94661.00
2023-05-11T11:32:27.373Z,94663.00
2023-05-11T11:33:27.371Z,94653.00
2023-05-11T11:34:27.355Z,94651.00
2023-05-11T11:35:27.363Z,94647.00
2023-05-11T11:36:27.366Z,94649.00
2023-05-11T11:37:27.335Z,94647.00
2023-05-11T11:38:29.342Z,94647.00
2023-05-11T11:39:27.303Z,94651.00
2023-05-11T11:40:32.044Z,94647.00
2023-05-11T11:41:28.305Z,94647.00
2023-05-11T11:42:27.307Z,94647.00
2023-05-11T11:43:27.277Z,94647.00
2023-05-11T11:44:27.257Z,94644.00